createdAt,value
2018-05-12T00:00:16.391Z,5.53
2018-05-12T00:02:17.812Z,5.90
2018-05-12T00:04:18.754Z,7.20
2018-05-12T00:06:19.739Z,5.70
2018-05-12T00:08:20.741Z,5.57
2018-05-12T00:10:23.114Z,4.90
2018-05-12T00:12:24.335Z,7.30
2018-05-12T00:14:25.581Z,7.20
2018-05-12T00:16:26.973Z,4.80
2018-05-12T00:18:28.850Z,4.57
2018-05-12T00:20:29.967Z,4.67
2018-05-12T00:22:30.961Z,5.03
2018-05-12T00:24:32.322Z,5.43
2018-05-12T00:26:33.322Z,6.43
2018-05-12T00:28:34.324Z,7.07
2018-05-12T00:30:35.330Z,39.63
2018-05-12T00:32:37.443Z,20.30
2018-05-12T00:34:39.552Z,68.33
2018-05-12T00:36:41.615Z,16.43
2018-05-12T00:38:43.295Z,9.83
2018-05-12T00:40:44.541Z,8.13
2018-05-12T00:42:45.636Z,7.60
2018-05-12T00:44:46.641Z,5.73
2018-05-12T00:46:47.645Z,7.73
2018-05-12T00:48:48.678Z,5.60
2018-05-12T00:50:49.945Z,5.70
2018-05-12T00:52:51.956Z,5.90
2018-05-12T00:54:53.546Z,5.20
2018-05-12T00:56:54.657Z,7.47
2018-05-12T00:58:55.727Z,5.80
2018-05-12T01:00:56.731Z,4.90
2018-05-12T01:02:57.731Z,5.23
2018-05-12T01:04:59.072Z,5.83
2018-05-12T01:07:00.079Z,6.77
2018-05-12T01:09:01.081Z,6.30
2018-05-12T01:11:02.075Z,6.73
2018-05-12T01:13:03.457Z,6.30
2018-05-12T01:15:04.419Z,6.83
2018-05-12T01:17:05.402Z,5.77
2018-05-12T01:19:06.533Z,5.57
2018-05-12T01:21:07.521Z,5.77
2018-05-12T01:23:08.495Z,6.70
2018-05-12T01:25:09.882Z,5.53
2018-05-12T01:27:10.858Z,5.43
2018-05-12T01:29:11.830Z,7.00
2018-05-12T01:31:12.830Z,5.53
2018-05-12T01:33:13.818Z,6.43
2018-05-12T01:35:14.978Z,5.37
2018-05-12T01:37:16.130Z,6.90
2018-05-12T01:39:17.130Z,5.60
2018-05-12T01:41:18.105Z,6.30
2018-05-12T01:43:19.118Z,6.00
2018-05-12T01:45:20.115Z,7.77
2018-05-12T01:47:21.087Z,6.00
2018-05-12T01:49:22.099Z,6.10
2018-05-12T01:51:23.322Z,6.13
2018-05-12T01:53:24.289Z,9.17
2018-05-12T01:55:25.279Z,9.40
2018-05-12T01:57:26.923Z,6.37
2018-05-12T01:59:28.259Z,6.90
2018-05-12T02:01:29.608Z,6.17
2018-05-12T02:03:30.962Z,6.83
2018-05-12T02:05:32.322Z,6.50
2018-05-12T02:07:33.316Z,7.40
2018-05-12T02:09:34.299Z,6.47
2018-05-12T02:11:35.655Z,6.40
2018-05-12T02:13:36.630Z,6.23
2018-05-12T02:15:37.958Z,7.40
2018-05-12T02:17:39.761Z,6.50
2018-05-12T02:19:40.730Z,6.47
2018-05-12T02:21:41.718Z,6.27
2018-05-12T02:23:43.052Z,6.67
2018-05-12T02:25:44.432Z,8.83
2018-05-12T02:27:45.409Z,6.93
2018-05-12T02:29:46.404Z,8.63
2018-05-12T02:31:47.389Z,7.23
2018-05-12T02:33:48.375Z,6.07
2018-05-12T02:35:56.351Z,6.20
2018-05-12T02:37:57.331Z,6.40
2018-05-12T02:39:58.315Z,7.00
2018-05-12T02:41:59.675Z,5.67
2018-05-12T02:44:00.647Z,8.30
2018-05-12T02:46:01.654Z,6.50
2018-05-12T02:48:02.646Z,7.40
2018-05-12T02:50:03.985Z,6.87
2018-05-12T02:52:05.327Z,7.47
2018-05-12T02:54:06.318Z,6.27
2018-05-12T02:56:07.306Z,6.60
2018-05-12T02:58:08.674Z,6.50
2018-05-12T03:00:09.681Z,6.97
2018-05-12T03:02:10.650Z,6.40
2018-05-12T03:04:11.923Z,5.90
2018-05-12T03:06:12.915Z,8.47
2018-05-12T03:08:13.922Z,6.27
2018-05-12T03:10:15.566Z,6.87
2018-05-12T03:12:16.535Z,7.03
2018-05-12T03:14:17.517Z,6.73
2018-05-12T03:16:18.551Z,7.63
2018-05-12T03:18:19.542Z,8.00
2018-05-12T03:20:20.534Z,10.90
2018-05-12T03:22:21.514Z,7.50
2018-05-12T03:24:22.510Z,7.23
2018-05-12T03:26:23.510Z,8.43
2018-05-12T03:28:24.483Z,7.53
2018-05-12T03:30:25.464Z,7.77
2018-05-12T03:32:26.459Z,7.87
2018-05-12T03:34:27.475Z,7.90
2018-05-12T03:36:28.434Z,8.23
2018-05-12T03:38:29.784Z,8.17
2018-05-12T03:40:31.190Z,8.07
2018-05-12T03:42:32.195Z,9.60
2018-05-12T03:44:33.182Z,7.17
2018-05-12T03:46:34.359Z,8.73
2018-05-12T03:48:35.354Z,9.10
2018-05-12T03:50:36.318Z,9.10
2018-05-12T03:52:37.832Z,8.60
2018-05-12T03:54:38.844Z,9.00
2018-05-12T03:56:39.926Z,8.77
2018-05-12T03:58:40.815Z,9.20
2018-05-12T04:00:41.906Z,8.10
2018-05-12T04:02:43.320Z,10.23
2018-05-12T06:16:12.339Z,18.00
2018-05-12T06:18:13.527Z,15.63
2018-05-12T06:20:14.449Z,13.80
2018-05-12T06:22:15.454Z,14.23
2018-05-12T06:24:16.459Z,15.13
2018-05-12T06:26:17.825Z,13.97
2018-05-12T06:28:18.814Z,14.70
2018-05-12T06:30:20.050Z,14.10
2018-05-12T06:32:20.998Z,12.97
2018-05-12T06:34:22.358Z,15.07
2018-05-12T06:36:23.719Z,14.03
2018-05-12T06:38:24.678Z,13.83
2018-05-12T06:40:25.667Z,14.43
2018-05-12T06:42:27.050Z,15.13
2018-05-12T06:44:28.022Z,13.70
2018-05-12T06:46:29.378Z,14.50
2018-05-12T06:48:31.015Z,14.70
2018-05-12T06:50:32.044Z,14.70
2018-05-12T06:52:33.147Z,13.80
2018-05-12T06:54:34.146Z,15.30
2018-05-12T06:56:35.486Z,16.43
2018-05-12T06:58:36.829Z,13.80
2018-05-12T07:00:38.238Z,13.73
2018-05-12T07:02:39.194Z,12.93
2018-05-12T07:04:40.231Z,13.43
2018-05-12T07:06:41.274Z,13.03
2018-05-12T07:08:42.618Z,14.87
2018-05-12T07:10:43.999Z,13.90
2018-05-12T07:12:45.016Z,18.97
2018-05-12T07:14:46.013Z,14.10
2018-05-12T07:16:47.125Z,13.40
2018-05-12T07:18:48.138Z,13.60
2018-05-12T07:20:49.227Z,14.50
2018-05-12T07:22:50.391Z,13.77
2018-05-12T07:24:51.770Z,16.03
2018-05-12T07:26:52.763Z,13.37
2018-05-12T07:28:54.114Z,12.83
2018-05-12T07:30:55.233Z,13.30
2018-05-12T07:32:56.230Z,14.93
2018-05-12T07:34:57.226Z,12.63
2018-05-12T07:36:58.211Z,14.27
2018-05-12T07:38:59.275Z,14.30
2018-05-12T07:41:00.560Z,13.50
2018-05-12T07:43:01.554Z,13.50
2018-05-12T07:45:02.957Z,12.57
2018-05-12T07:47:03.927Z,12.40
2018-05-12T07:49:04.974Z,12.83
2018-05-12T07:51:05.942Z,13.20
2018-05-12T07:53:07.008Z,13.17
2018-05-12T07:55:08.055Z,14.23
2018-05-12T07:57:09.038Z,12.90
2018-05-12T07:59:09.998Z,11.60
2018-05-12T08:01:10.985Z,13.53
2018-05-12T08:03:12.386Z,12.40
2018-05-12T08:05:13.362Z,12.10
2018-05-12T08:07:14.744Z,12.23
2018-05-12T08:09:15.742Z,12.17
2018-05-12T08:11:17.102Z,11.50
2018-05-12T08:13:18.113Z,12.47
2018-05-12T08:15:19.156Z,11.30
2018-05-12T08:17:20.508Z,10.77
2018-05-12T08:19:21.882Z,11.50
2018-05-12T08:21:23.588Z,12.43
2018-05-12T08:23:24.599Z,10.83
2018-05-12T08:25:25.569Z,9.93
2018-05-12T08:27:26.949Z,8.83
2018-05-12T08:29:27.951Z,9.40
2018-05-12T08:31:29.472Z,10.00
2018-05-12T08:33:30.975Z,10.83
2018-05-12T08:35:32.021Z,9.13
2018-05-12T08:37:33.627Z,9.60
2018-05-12T08:39:34.999Z,11.10
2018-05-12T08:41:36.017Z,9.07
2018-05-12T08:43:37.456Z,9.80
2018-05-12T08:45:38.837Z,25.63
2018-05-12T08:47:39.850Z,8.10
2018-05-12T08:49:41.242Z,8.90
2018-05-12T08:51:42.245Z,11.17
2018-05-12T08:53:43.232Z,7.97
2018-05-12T08:55:44.227Z,8.70
2018-05-12T08:57:45.257Z,9.17
2018-05-12T08:59:46.226Z,7.53
2018-05-12T09:01:47.238Z,7.87
2018-05-12T09:03:48.206Z,12.90
2018-05-12T09:05:49.249Z,9.20
2018-05-12T09:07:50.296Z,8.87
2018-05-12T09:09:51.330Z,10.90
2018-05-12T09:11:52.808Z,8.97
2018-05-12T09:13:53.799Z,10.20
2018-05-12T09:15:54.783Z,9.47
2018-05-12T09:17:55.793Z,8.23
2018-05-12T09:19:57.151Z,9.20
2018-05-12T09:21:58.110Z,8.40
2018-05-12T09:23:59.222Z,8.80
2018-05-12T09:26:00.236Z,8.67
2018-05-12T09:28:01.672Z,9.53
2018-05-12T09:30:02.727Z,15.90
2018-05-12T09:32:03.900Z,8.90
2018-05-12T09:34:05.578Z,7.60
2018-05-12T09:36:07.964Z,9.23
2018-05-12T09:38:08.999Z,9.17
2018-05-12T09:40:09.965Z,13.23
2018-05-12T09:42:11.019Z,8.47
2018-05-12T09:44:12.015Z,10.50
2018-05-12T09:46:13.454Z,8.60
2018-05-12T09:48:15.426Z,9.27
2018-05-12T09:50:16.863Z,8.17
2018-05-12T09:52:18.281Z,10.30
2018-05-12T09:54:19.256Z,7.37
2018-05-12T09:56:21.624Z,8.77
2018-05-12T09:58:24.107Z,12.73
2018-05-12T10:00:26.965Z,15.27
2018-05-12T10:02:28.434Z,12.00
2018-05-12T10:04:29.723Z,7.90
2018-05-12T10:06:30.740Z,9.43
2018-05-12T10:08:31.753Z,7.53
2018-05-12T10:10:32.794Z,6.50
2018-05-12T10:12:33.886Z,14.43
2018-05-12T10:14:35.426Z,9.00
2018-05-12T10:16:36.575Z,6.20
2018-05-12T10:18:37.950Z,7.17
2018-05-12T10:20:38.924Z,9.27
2018-05-12T10:22:39.959Z,20.60
2018-05-12T10:24:47.799Z,10.00
2018-05-12T10:26:49.519Z,7.50
2018-05-12T10:28:50.578Z,7.67
2018-05-12T10:30:52.099Z,6.30
2018-05-12T10:32:53.588Z,9.70
2018-05-12T10:34:55.454Z,7.03
2018-05-12T10:36:57.464Z,19.20
2018-05-12T10:38:58.537Z,7.30
2018-05-12T10:41:00.251Z,6.60
2018-05-12T10:43:01.307Z,9.13
2018-05-12T10:45:02.742Z,8.37
2018-05-12T10:47:04.270Z,6.57
2018-05-12T10:49:05.414Z,7.17
2018-05-12T10:51:06.407Z,8.77
2018-05-12T10:53:07.395Z,16.60
2018-05-12T10:55:08.419Z,13.43
2018-05-12T10:57:09.475Z,9.03
2018-05-12T10:59:10.473Z,12.27
2018-05-12T11:01:11.476Z,10.87
2018-05-12T11:03:12.608Z,14.87
2018-05-12T11:05:13.955Z,14.03
2018-05-12T11:07:14.977Z,10.53
2018-05-12T11:09:16.351Z,39.07
2018-05-12T11:11:17.342Z,32.13
2018-05-12T11:13:18.658Z,12.20
2018-05-12T11:15:19.632Z,20.53
2018-05-12T11:17:21.011Z,8.60
2018-05-12T11:19:22.182Z,11.63
2018-05-12T11:21:23.186Z,14.93
2018-05-12T11:23:24.225Z,11.53
2018-05-12T11:25:25.214Z,11.67
2018-05-12T11:27:26.312Z,28.53
2018-05-12T11:29:27.319Z,9.50
2018-05-12T11:31:28.306Z,12.07
2018-05-12T11:33:29.322Z,42.90
2018-05-12T11:35:30.328Z,12.20
2018-05-12T11:37:32.159Z,23.97
2018-05-12T11:39:34.050Z,22.70
2018-05-12T11:41:35.326Z,15.60
2018-05-12T11:43:36.464Z,14.00
2018-05-12T11:45:37.545Z,9.23
2018-05-12T11:47:38.617Z,7.60
2018-05-12T11:49:39.979Z,8.27
2018-05-12T11:51:41.052Z,7.43
2018-05-12T11:53:42.505Z,9.93
2018-05-12T11:55:44.482Z,15.40
2018-05-12T11:57:45.788Z,14.37
2018-05-12T11:59:47.719Z,6.30
2018-05-12T12:01:48.956Z,8.87
2018-05-12T12:03:50.050Z,6.80
2018-05-12T12:05:51.127Z,8.00
2018-05-12T12:07:52.578Z,7.07
2018-05-12T12:09:53.604Z,6.70
2018-05-12T12:11:54.662Z,8.00
2018-05-12T12:13:55.713Z,7.40
2018-05-12T12:15:56.773Z,6.73
2018-05-12T12:17:57.900Z,7.10
2018-05-12T12:19:59.358Z,6.63
2018-05-12T12:22:00.560Z,6.23
2018-05-12T12:24:01.731Z,6.20
2018-05-12T12:26:02.807Z,6.30
2018-05-12T12:28:04.034Z,5.67
2018-05-12T12:30:05.120Z,5.50
2018-05-12T12:32:06.179Z,6.57
2018-05-12T12:34:07.701Z,7.00
2018-05-12T12:36:11.207Z,5.80
2018-05-12T12:38:12.448Z,6.20
2018-05-12T12:40:14.559Z,5.90
2018-05-12T12:42:15.909Z,6.27
2018-05-12T12:44:16.923Z,6.83
2018-05-12T12:46:18.117Z,5.37
2018-05-12T12:48:19.147Z,4.87
2018-05-12T12:50:20.227Z,4.57
2018-05-12T12:52:21.935Z,5.53
2018-05-12T12:54:23.396Z,6.57
2018-05-12T12:56:25.256Z,5.53
2018-05-12T12:58:26.934Z,5.80
2018-05-12T13:00:27.975Z,6.83
2018-05-12T13:02:29.002Z,5.90
2018-05-12T13:04:30.117Z,5.80
2018-05-12T13:06:31.566Z,4.90
2018-05-12T13:08:33.635Z,4.80
2018-05-12T13:10:34.902Z,6.30
2018-05-12T13:12:35.915Z,8.47
2018-05-12T13:14:36.926Z,10.57
2018-05-12T13:16:37.925Z,5.27
2018-05-12T13:18:38.955Z,4.30
2018-05-12T13:20:39.991Z,5.50
2018-05-12T13:22:40.999Z,6.23
2018-05-12T13:24:42.016Z,6.60
2018-05-12T13:26:43.402Z,5.77
2018-05-12T13:28:44.472Z,5.03
2018-05-12T13:30:45.469Z,5.57
2018-05-12T13:32:46.838Z,4.77
2018-05-12T13:34:47.862Z,5.03
2018-05-12T13:36:49.470Z,4.43
2018-05-12T13:38:50.807Z,5.17
2018-05-12T13:40:52.345Z,6.07
2018-05-12T13:42:53.691Z,6.00
2018-05-12T13:44:55.064Z,10.03
2018-05-12T13:46:56.059Z,5.10
2018-05-12T13:48:57.104Z,6.70
2018-05-12T13:50:59.392Z,4.90
2018-05-12T13:53:00.527Z,6.47
2018-05-12T13:55:01.561Z,4.73
2018-05-12T13:57:02.948Z,5.27
2018-05-12T13:59:04.064Z,4.60
2018-05-12T14:01:05.047Z,5.07
2018-05-12T14:03:06.030Z,4.53
2018-05-12T14:05:07.180Z,4.70
2018-05-12T14:07:08.162Z,4.60
2018-05-12T14:09:09.178Z,5.30
2018-05-12T14:11:10.211Z,4.30
2018-05-12T14:13:11.197Z,4.63
2018-05-12T14:15:12.277Z,4.43
2018-05-12T14:17:13.334Z,4.73
2018-05-12T14:19:14.343Z,4.53
2018-05-12T14:21:15.324Z,5.47
2018-05-12T14:23:16.897Z,5.80
2018-05-12T14:25:17.883Z,5.37
2018-05-12T14:27:18.891Z,5.13
2018-05-12T14:29:20.046Z,4.73
2018-05-12T14:31:21.010Z,6.17
2018-05-12T14:33:22.401Z,5.20
2018-05-12T14:35:23.417Z,4.83
2018-05-12T14:37:28.029Z,5.57
2018-05-12T14:39:29.018Z,4.97
2018-05-12T14:41:30.056Z,4.60
2018-05-12T14:43:31.035Z,5.17
2018-05-12T14:45:32.509Z,4.90
2018-05-12T14:47:33.494Z,6.60
2018-05-12T14:49:34.470Z,4.60
2018-05-12T14:51:35.462Z,4.53
2018-05-12T14:53:36.463Z,6.90
2018-05-12T14:55:37.465Z,5.50
2018-05-12T14:57:38.507Z,8.27
2018-05-12T14:59:39.502Z,5.50
2018-05-12T15:01:40.518Z,5.77
2018-05-12T15:03:41.538Z,5.87
2018-05-12T15:05:42.534Z,5.33
2018-05-12T15:07:43.946Z,6.80
2018-05-12T15:09:44.968Z,4.60
2018-05-12T15:11:45.934Z,5.00
2018-05-12T15:13:47.268Z,4.40
2018-05-12T15:15:48.246Z,5.33
2018-05-12T15:17:49.252Z,6.33
2018-05-12T15:19:50.620Z,4.90
2018-05-12T15:21:51.922Z,4.70
2018-05-12T15:23:52.908Z,5.10
2018-05-12T15:25:53.897Z,6.07
2018-05-12T15:27:55.282Z,4.93
2018-05-12T15:29:56.287Z,4.80
2018-05-12T15:31:57.685Z,4.63
2018-05-12T15:33:58.697Z,5.23
2018-05-12T15:35:59.678Z,7.33
2018-05-12T15:38:00.677Z,6.23
2018-05-12T15:40:01.677Z,7.77
2018-05-12T15:42:03.070Z,5.33
2018-05-12T15:44:04.054Z,6.00
2018-05-12T15:46:05.077Z,5.80
2018-05-12T15:48:06.120Z,7.43
2018-05-12T15:50:07.342Z,6.60
2018-05-12T15:52:08.348Z,5.57
2018-05-12T15:54:09.339Z,8.50
2018-05-12T15:56:10.842Z,18.77
2018-05-12T15:58:11.810Z,11.40
2018-05-12T16:00:13.191Z,10.90
2018-05-12T16:02:14.925Z,11.63
2018-05-12T16:04:15.911Z,10.57
2018-05-12T16:06:16.890Z,9.87
2018-05-12T16:08:18.251Z,10.90
2018-05-12T16:10:19.246Z,9.67
2018-05-12T16:12:20.255Z,10.30
2018-05-12T16:14:21.218Z,9.53
2018-05-12T16:16:22.221Z,11.93
2018-05-12T16:18:23.273Z,9.63
2018-05-12T16:20:24.420Z,12.80
2018-05-12T16:22:26.226Z,12.00
2018-05-12T16:24:27.219Z,12.00
2018-05-12T16:26:28.202Z,10.90
2018-05-12T16:28:29.195Z,15.50
2018-05-12T16:30:30.568Z,15.83
2018-05-12T16:32:31.590Z,15.33
2018-05-12T16:34:32.573Z,11.80
2018-05-12T16:36:33.561Z,11.63
2018-05-12T16:38:34.579Z,11.47
2018-05-12T16:40:35.936Z,15.80
2018-05-12T16:42:36.946Z,12.03
2018-05-12T16:44:38.036Z,13.30
2018-05-12T16:46:38.954Z,13.10
2018-05-12T16:48:39.961Z,12.30
2018-05-12T16:50:41.339Z,12.93
2018-05-12T16:52:42.705Z,13.10
2018-05-12T16:54:43.671Z,13.67
2018-05-12T16:58:52.347Z,18.57
2018-05-12T17:00:53.326Z,14.60
2018-05-12T17:02:54.327Z,12.70
2018-05-12T17:04:55.345Z,15.40
2018-05-12T17:06:56.314Z,13.77
2018-05-12T17:08:57.327Z,13.83
2018-05-12T17:10:58.346Z,12.90
2018-05-12T17:12:59.346Z,12.40
2018-05-12T17:15:00.378Z,14.80
2018-05-12T17:17:01.427Z,13.07
2018-05-12T17:19:02.454Z,15.50
2018-05-12T17:21:03.451Z,13.07
2018-05-12T17:23:04.432Z,12.80
2018-05-12T17:25:05.429Z,11.73
2018-05-12T17:27:06.411Z,11.17
2018-05-12T17:29:07.914Z,11.80
2018-05-12T17:31:08.907Z,13.40
2018-05-12T17:33:11.638Z,11.50
2018-05-12T17:35:14.434Z,13.27
2018-05-12T17:37:17.177Z,9.93
2018-05-12T17:39:19.911Z,11.20
2018-05-12T17:41:22.683Z,12.93
2018-05-12T17:43:25.441Z,14.50
2018-05-12T17:45:28.181Z,11.40
2018-05-12T17:47:32.288Z,10.83
2018-05-12T17:49:35.035Z,11.40
2018-05-12T17:51:37.777Z,9.63
2018-05-12T17:53:40.534Z,10.50
2018-05-12T17:55:43.437Z,9.43
2018-05-12T17:57:46.131Z,10.70
2018-05-12T17:59:49.198Z,13.10
2018-05-12T18:01:51.956Z,12.53
2018-05-12T18:03:54.698Z,9.70
2018-05-12T18:05:55.759Z,9.70
2018-05-12T18:07:57.176Z,9.37
2018-05-12T18:09:58.163Z,9.10
2018-05-12T18:11:59.622Z,12.30
2018-05-12T18:14:01.049Z,10.70
2018-05-12T18:16:02.091Z,10.17
2018-05-12T18:18:03.666Z,10.30
2018-05-12T18:20:04.685Z,18.07
2018-05-12T18:22:06.161Z,12.00
2018-05-12T18:24:07.219Z,12.07
2018-05-12T18:26:08.247Z,10.00
2018-05-12T18:28:09.294Z,11.67
2018-05-12T18:30:10.447Z,11.03
2018-05-12T18:32:18.629Z,10.63
2018-05-12T18:34:19.536Z,10.60
2018-05-12T18:36:20.541Z,12.63
2018-05-12T18:38:21.922Z,12.07
2018-05-12T18:40:23.650Z,17.83
2018-05-12T18:42:24.996Z,15.23
2018-05-12T18:44:26.402Z,10.10
2018-05-12T18:46:27.377Z,12.33
2018-05-12T18:48:28.751Z,11.90
2018-05-12T18:50:32.048Z,11.50
2018-05-12T18:52:33.799Z,11.13
2018-05-12T18:54:34.840Z,9.33
2018-05-12T18:56:35.918Z,10.17
2018-05-12T18:58:36.856Z,9.00
2018-05-12T19:00:38.194Z,10.60
2018-05-12T19:02:39.583Z,10.17
2018-05-12T19:04:57.689Z,12.27
2018-05-12T19:06:59.459Z,10.50
2018-05-12T19:09:01.645Z,12.43
2018-05-12T19:11:13.956Z,11.83
2018-05-12T19:13:23.138Z,9.03
2018-05-12T19:15:26.821Z,9.90
2018-05-12T19:20:13.171Z,10.37
2018-05-12T19:22:16.466Z,9.80
2018-05-12T19:24:26.902Z,11.20
2018-05-12T21:01:33.087Z,15.27
2018-05-12T22:06:22.550Z,18.07
2018-05-12T22:08:23.545Z,18.70
2018-05-12T22:10:24.551Z,18.73
2018-05-12T22:12:25.579Z,17.90
2018-05-12T22:14:26.995Z,18.80
2018-05-12T22:16:28.390Z,18.07
2018-05-12T22:18:29.450Z,24.73
2018-05-12T22:20:30.393Z,20.20
2018-05-12T22:22:31.755Z,18.87
2018-05-12T22:24:32.784Z,21.13
2018-05-12T22:26:34.161Z,20.90
2018-05-12T22:28:35.190Z,20.03
2018-05-12T22:30:36.283Z,20.20
2018-05-12T22:32:37.589Z,21.13
2018-05-12T22:34:38.583Z,18.80
2018-05-12T22:36:39.603Z,22.20
2018-05-12T22:38:40.967Z,19.93
2018-05-12T22:40:41.937Z,21.13
2018-05-12T22:42:42.940Z,21.00
2018-05-12T22:44:43.935Z,19.43
2018-05-12T22:46:45.111Z,20.90
2018-05-12T22:48:46.758Z,18.83
2018-05-12T22:50:48.130Z,21.00
2018-05-12T22:52:49.178Z,18.13
2018-05-12T22:54:50.247Z,22.43
2018-05-12T22:56:51.227Z,23.40
2018-05-12T22:58:52.318Z,20.10
2018-05-12T23:00:53.288Z,23.37
2018-05-12T23:02:54.282Z,19.60
2018-05-12T23:04:55.266Z,21.37
2018-05-12T23:06:56.267Z,22.67
2018-05-12T23:08:57.268Z,23.50
2018-05-12T23:10:58.295Z,21.87
2018-05-12T23:12:59.303Z,22.50
2018-05-12T23:15:00.282Z,23.40
2018-05-12T23:17:01.273Z,19.87
2018-05-12T23:19:02.283Z,23.30
2018-05-12T23:21:03.651Z,20.50
2018-05-12T23:23:04.646Z,21.40
2018-05-12T23:25:05.624Z,29.93
2018-05-12T23:27:06.599Z,24.10
2018-05-12T23:29:07.590Z,23.00
2018-05-12T23:31:08.602Z,22.33
2018-05-12T23:33:09.949Z,24.40
2018-05-12T23:35:11.539Z,28.23
2018-05-12T23:37:12.518Z,22.97
2018-05-12T23:39:13.482Z,23.30
2018-05-12T23:41:14.470Z,24.10
2018-05-12T23:43:15.461Z,22.33
2018-05-12T23:45:16.486Z,23.57
2018-05-12T23:47:17.796Z,21.67
2018-05-12T23:49:18.774Z,28.07
2018-05-12T23:51:19.782Z,21.10
2018-05-12T23:53:20.729Z,26.23
2018-05-12T23:55:22.085Z,24.70
2018-05-12T23:57:23.062Z,26.93
2018-05-12T23:59:24.030Z,25.53
